TBPB

Details ICAO TBPB (BGI)
Name Barbados/Grantley Adams Intl
Region Barbados
Timezone America/Barbados (UTC-4.0)
Plans Departing 434
Arriving 641
Stats Elevation 168 ft / 51 m (AMSL)
Location 13.074614° -59.492206°
Runways 1
Magnetic Variation 15.627° W
Sunrise 2018-06-19 09:33:45 UTC / 2018-06-19 05:33:45 Local
Sunset 2018-06-19 22:27:27 UTC / 2018-06-19 18:27:27 Local
Advertisement - Login to hide

Runways

ID Width Length Bearing (true) Bearing (mag) Surface Threshold Offset Overrun Length
09 148 ft / 45 m 11,924 ft / 3,635 m 75.84° 91.47° Asphalt 0 ft / 0 m 174 ft / 53 m
27 148 ft / 45 m 11,924 ft / 3,635 m 255.85° 271.48° Asphalt 0 ft / 0 m 0 ft / 0 m

Approach Navaids

Runway Type Ident Frequency Range Bearing (true) Bearing (mag) Slope Elevation
09 Localiser IBGI 110.10 MHz 18 nm / 33 km 75.97° 91.60° - 168 ft / 51 m (AMSL)
09 Glidescope IBGI 110.10 MHz 10 nm / 19 km 75.85° 91.47° 3.00° 168 ft / 51 m (AMSL)

Map

Weather


0- 5 10 15 20 25 30 35+ Temperature / ° C

Clouds and Precipitation
Forecast for 2018-06-19 06:00 UTC. Updated 5 hours ago

Ground ~20,000 ft ~40,000 ft Winds

METAR

TBPB 190800Z 11015KT 9999 SCT016 26/24 Q1016 NOSIG

TAF

Not found

Frequencies

Ground 121.90 MHz ADAMS GND
Approach 129.35 MHz ADAMS APP
Approach 121.20 MHz ADAMS APP
Tower 118.70 MHz ADAMS TWR
Approach 120.70 MHz ADAMS APP
Approach 128.85 MHz ADAMS APP
Warning: Do not use this data for real-world aviation or navigation. No guarantee of current accuracy is given.